• Join FlightAware (Why Join?)
  • Login
  • US Flag 
10:37AM EDT


 

Airport Tracker/Info


-or-


 

Live Flight TrackerFlight Track Log ✈ TFX114 ✈ 24-May-2013 ✈ YBNA / BNK - YBCG / OOL

Flight Track Log - Related Links

Times and Time Zones

All times are in EDT time to prevent confusion due to time zone crossing. See the TFX114 flight status page for this flight to view local times or setup timezone preferences in your user account.

Time Position Orientation Groundspeed Altitude Reporting Facility
EDT Latitude Longitude Course Direction KTS MPH feet Rate Location/Type
06:54PM -28.8345 153.5624 289° West 1,900  Level Aus ATC (Calculated)
06:55PM -28.8200 153.5153 37° Northeast 178 205 3,400 2,340 Climbing Aus ATC (RADAR)
06:56PM -28.7781 153.5520 37° Northeast 222 255 5,200 2,280 Climbing Aus ATC (RADAR)
06:56PM -28.7641 153.5573 18° North 224 258 5,900 540 Climbing Aus ATC (RADAR)
06:57PM -28.6684 153.5440 353° North 277 319 6,100 60 Climbing Aus ATC (RADAR)
06:58PM -28.6353 153.5408 355° North 283 326 6,100  Level Aus ATC (RADAR)
06:58PM -28.6024 153.5382 356° North 284 327 6,100  Level Aus ATC (RADAR)
06:59PM -28.5560 153.5352 357° North 285 328 6,100  Level Aus ATC (RADAR)
07:00PM -28.4973 153.5434 North 282 325 6,100  Level Aus ATC (RADAR)
07:00PM -28.4544 153.5617 21° North 282 325 6,100 -840 Level Aus ATC (RADAR)
07:01PM -28.4020 153.5846 21° North 269 310 5,000 -1,680 Descending Aus ATC (RADAR)
07:01PM -28.3723 153.5980 22° Northeast 274 315 4,200 -1,560 Descending Aus ATC (RADAR)
07:03PM -28.2777 153.6453 24° Northeast 281 323 2,300 -1,200 Descending Aus ATC (RADAR)
07:03PM -28.2476 153.6382 348° North 265 305 2,100 -420 Descending Aus ATC (RADAR)
07:04PM -28.2099 153.6232 341° North 246 283 1,900 -360 Descending Aus ATC (RADAR)
07:05PM -28.1610 153.5988 336° Northwest 220 253 1,600 -240 Descending Aus ATC (RADAR)
07:05PM -28.1330 153.5838 335° Northwest 191 220 1,600  Level Aus ATC (RADAR)
07:06PM -28.1088 153.5542 313° West 156 180 1,600 -240 Level Aus ATC (RADAR)
07:06PM -28.1090 153.5353 269° West 145 167 1,300 -480 Descending Aus ATC (RADAR)
07:07PM -28.1259 153.4944 245° Southwest 138 159 900 -540 Descending Aus ATC (RADAR)
07:08PM -28.1412 153.4900 194° South 132 152 500 -900 Descending Aus ATC (RADAR)
07:08PM -28.1533 153.4984 149° Southeast 120 138 100 -420 Descending Aus ATC (RADAR)
07:09PM -28.1648 153.5054 151° Southeast 68 78 100  Level Aus ATC (RADAR)